Time;durP1;ratioP1;P1;durP2;ratioP2;P2;SDS_P1;SDS_P2;PMS_P1;PMS_P2;Temp;Humidity;BMP_temperature;BMP_pressure;BME280_temperature;BME280_humidity;BME280_pressure;Samples;Min_cycle;Max_cycle;Signal;HPM_P1;HPM_P2
2022/06/03 00:01:13;;;;;;;9.33;5.85;;;;;;;;;;1891802;75;21123;-60
2022/06/03 00:03:46;;;;;;;13.72;5.45;;;;;;;;;;1891801;75;21049;-60
2022/06/03 00:06:31;;;;;;;9.08;5.65;;;;;;;;;;1891727;76;21053;-60
2022/06/03 00:09:04;;;;;;;15.15;5.47;;;;;;;;;;1892051;75;21065;-60
2022/06/03 00:11:36;;;;;;;13.53;5.37;;;;;;;;;;1891783;75;21057;-60
2022/06/03 00:14:13;;;;;;;12.78;5.72;;;;;;;;;;1889328;74;21005;-60
2022/06/03 00:16:58;;;;;;;5.67;4.35;;;;;;;;;;1861222;75;21058;-60
2022/06/03 00:19:25;;;;;;;;;;;;;;;;;;1894640;76;21057;-60
2022/06/03 00:21:55;;;;;;;11.18;5.12;;;;;;;;;;1891773;75;20359;-60
2022/06/03 00:24:28;;;;;;;13.83;4.90;;;;;;;;;;1891369;74;21099;-60
2022/06/03 00:26:58;;;;;;;13.08;5.10;;;;;;;;;;1891880;75;21099;-60
2022/06/03 00:29:37;;;;;;;7.72;4.55;;;;;;;;;;1888246;76;21061;-60
2022/06/03 00:32:19;;;;;;;8.40;5.20;;;;;;;;;;1891345;74;21014;-60
2022/06/03 00:34:49;;;;;;;7.97;4.67;;;;;;;;;;1851017;76;21057;-60
2022/06/03 00:37:31;;;;;;;9.58;5.20;;;;;;;;;;1890924;74;21033;-60
2022/06/03 00:40:17;;;;;;;8.83;4.92;;;;;;;;;;1892000;76;21329;-60
2022/06/03 00:42:50;;;;;;;9.08;5.03;;;;;;;;;;1891923;76;21123;-60
2022/06/03 00:45:37;;;;;;;6.90;4.53;;;;;;;;;;1891071;74;21045;-60
2022/06/03 00:48:22;;;;;;;7.87;4.80;;;;;;;;;;1893961;76;21045;-60
2022/06/03 00:50:52;;;;;;;10.10;4.72;;;;;;;;;;1892337;75;21095;-61
2022/06/03 00:53:40;;;;;;;7.80;5.20;;;;;;;;;;1852327;76;21472;-61
2022/06/03 00:56:25;;;;;;;7.92;4.58;;;;;;;;;;1893649;75;21037;-61
2022/06/03 00:59:12;;;;;;;10.80;5.03;;;;;;;;;;1894117;75;21029;-61
2022/06/03 01:01:42;;;;;;;10.45;5.70;;;;;;;;;;1893990;76;21049;-61
2022/06/03 01:04:27;;;;;;;9.45;5.65;;;;;;;;;;1894065;75;21072;-61
2022/06/03 01:07:13;;;;;;;10.03;4.55;;;;;;;;;;1893532;76;21076;-61
2022/06/03 01:09:44;;;;;;;9.93;5.37;;;;;;;;;;1894144;75;21045;-61
2022/06/03 01:12:28;;;;;;;9.00;5.03;;;;;;;;;;1894106;75;21103;-61
2022/06/03 01:14:58;;;;;;;;;;;;;;;;;;1896879;76;21029;-61
2022/06/03 01:17:30;;;;;;;14.15;5.58;;;;;;;;;;1894233;75;20100;-61
2022/06/03 01:20:01;;;;;;;8.35;5.10;;;;;;;;;;1894080;75;21091;-61
2022/06/03 01:22:31;;;;;;;8.40;4.12;;;;;;;;;;1894022;75;21099;-61
2022/06/03 01:25:13;;;;;;;8.33;5.28;;;;;;;;;;1893900;75;21139;-61
2022/06/03 01:27:59;;;;;;;10.55;5.92;;;;;;;;;;1849612;75;21124;-61
2022/06/03 01:30:32;;;;;;;9.98;5.40;;;;;;;;;;1893916;76;21045;-61
2022/06/03 01:33:02;;;;;;;11.63;4.90;;;;;;;;;;1887213;76;21029;-61
2022/06/03 01:35:41;;;;;;;13.65;5.45;;;;;;;;;;1893906;75;21069;-61
2022/06/03 01:38:11;;;;;;;5.72;5.12;;;;;;;;;;1894079;75;21101;-61
2022/06/03 01:40:50;;;;;;;7.33;4.70;;;;;;;;;;1874445;76;21030;-61
2022/06/03 01:43:20;;;;;;;30.88;7.12;;;;;;;;;;1892732;75;21018;-61
2022/06/03 01:45:55;;;;;;;17.62;5.45;;;;;;;;;;1890740;74;21064;-61
2022/06/03 01:48:34;;;;;;;6.97;4.70;;;;;;;;;;1891936;75;21136;-61
2022/06/03 01:51:03;;;;;;;11.65;5.10;;;;;;;;;;1891875;76;20998;-61
2022/06/03 01:53:36;;;;;;;12.70;6.00;;;;;;;;;;1891792;76;21082;-61
2022/06/03 01:56:06;;;;;;;12.20;5.12;;;;;;;;;;1890926;75;21206;-61
2022/06/03 01:58:36;;;;;;;10.95;5.17;;;;;;;;;;1890683;74;21026;-60
2022/06/03 02:01:06;;;;;;;10.00;5.35;;;;;;;;;;1891785;75;21086;-61
2022/06/03 02:03:36;;;;;;;11.70;5.58;;;;;;;;;;1890218;75;21026;-61
2022/06/03 02:06:09;;;;;;;10.50;5.17;;;;;;;;;;1890874;74;21033;-61
2022/06/03 02:08:48;;;;;;;13.95;5.70;;;;;;;;;;1890836;75;21061;-61
2022/06/03 02:11:36;;;;;;;14.55;6.25;;;;;;;;;;1890379;76;21099;-61
2022/06/03 02:14:18;;;;;;;8.83;5.95;;;;;;;;;;1891385;76;21025;-61
2022/06/03 02:16:51;;;;;;;11.57;5.00;;;;;;;;;;1891715;76;21057;-61
2022/06/03 02:19:38;;;;;;;11.45;5.80;;;;;;;;;;1891742;75;21093;-61
2022/06/03 02:22:20;;;;;;;8.45;4.75;;;;;;;;;;1891744;76;21025;-61
2022/06/03 02:24:50;;;;;;;9.50;4.65;;;;;;;;;;1891692;76;21057;-61
2022/06/03 02:27:32;;;;;;;14.80;5.75;;;;;;;;;;1873987;75;21135;-61
2022/06/03 02:30:27;;;;;;;12.13;5.45;;;;;;;;;;1890336;75;21033;-61
2022/06/03 02:33:13;;;;;;;14.98;6.12;;;;;;;;;;1892039;76;21053;-61
2022/06/03 02:35:49;;;;;;;11.25;5.95;;;;;;;;;;1891756;76;21500;-61
2022/06/03 02:38:22;;;;;;;9.70;4.97;;;;;;;;;;1891732;75;21002;-61
2022/06/03 02:40:52;;;;;;;7.50;5.03;;;;;;;;;;1891728;76;21108;-61
2022/06/03 02:43:39;;;;;;;12.13;5.70;;;;;;;;;;1891751;76;21055;-61
2022/06/03 02:46:26;;;;;;;16.27;5.65;;;;;;;;;;1892279;75;21073;-60
2022/06/03 02:49:08;;;;;;;8.98;5.12;;;;;;;;;;1894040;76;21037;-61
2022/06/03 02:51:37;;;;;;;8.83;5.42;;;;;;;;;;1894015;76;21525;-61
2022/06/03 02:54:14;;;;;;;9.93;5.92;;;;;;;;;;1894044;75;21060;-61
2022/06/03 02:56:43;;;;;;;15.23;5.75;;;;;;;;;;1894080;75;21021;-61
2022/06/03 02:59:29;;;;;;;8.65;5.95;;;;;;;;;;1894071;75;21049;-61
2022/06/03 03:02:07;;;;;;;7.17;5.28;;;;;;;;;;1893140;74;21107;-61
2022/06/03 03:04:37;;;;;;;17.07;6.33;;;;;;;;;;1894115;75;21025;-61
2022/06/03 03:07:09;;;;;;;20.80;6.42;;;;;;;;;;1893971;75;21048;-60
2022/06/03 03:09:42;;;;;;;16.70;6.67;;;;;;;;;;1894135;75;21057;-61
2022/06/03 03:12:15;;;;;;;15.23;6.33;;;;;;;;;;1894031;76;21104;-61
2022/06/03 03:15:01;;;;;;;8.53;5.80;;;;;;;;;;1893972;75;21112;-60
2022/06/03 03:17:42;;;;;;;11.03;5.60;;;;;;;;;;1894001;75;21045;-60
2022/06/03 03:20:24;;;;;;;15.35;6.20;;;;;;;;;;1894178;75;21530;-60
2022/06/03 03:23:11;;;;;;;16.02;6.47;;;;;;;;;;1893994;76;21053;-60
2022/06/03 03:25:44;;;;;;;17.15;7.05;;;;;;;;;;1893996;75;21116;-61
2022/06/03 03:28:30;;;;;;;16.45;6.42;;;;;;;;;;1893239;75;21005;-61
2022/06/03 03:31:09;;;;;;;12.88;6.87;;;;;;;;;;1894079;76;21045;-61
2022/06/03 03:33:45;;;;;;;15.18;6.12;;;;;;;;;;1893125;75;21033;-61
2022/06/03 03:36:31;;;;;;;17.23;6.80;;;;;;;;;;1894033;75;21033;-60
2022/06/03 03:39:01;;;;;;;18.90;8.20;;;;;;;;;;1894081;75;21300;-60
2022/06/03 03:41:31;;;;;;;22.90;8.68;;;;;;;;;;1874491;75;21097;-60
2022/06/03 03:44:18;;;;;;;17.32;5.75;;;;;;;;;;1894085;76;21341;-60
2022/06/03 03:47:06;;;;;;;12.23;6.45;;;;;;;;;;1893017;75;21143;-59
2022/06/03 03:49:53;;;;;;;11.73;6.95;;;;;;;;;;1890362;74;21119;-59
2022/06/03 03:52:31;;;;;;;7.50;4.75;;;;;;;;;;1891832;75;21053;-60
2022/06/03 03:55:01;;;;;;;9.65;4.85;;;;;;;;;;1891738;75;21538;-60
2022/06/03 03:57:40;;;;;;;10.15;6.83;;;;;;;;;;1891716;76;21056;-59
2022/06/03 04:00:23;;;;;;;22.25;7.22;;;;;;;;;;1871497;74;21057;-59
2022/06/03 04:03:09;;;;;;;18.52;7.83;;;;;;;;;;1891777;75;21558;-60
2022/06/03 04:05:52;;;;;;;12.60;6.42;;;;;;;;;;1891654;75;21053;-60
2022/06/03 04:08:21;;;;;;;22.17;6.53;;;;;;;;;;1890472;74;21069;-59
2022/06/03 04:11:03;;;;;;;11.68;7.15;;;;;;;;;;1891902;75;21033;-60
2022/06/03 04:13:39;;;;;;;20.30;9.93;;;;;;;;;;1890320;75;21041;-60
2022/06/03 04:16:18;;;;;;;21.37;11.03;;;;;;;;;;1891769;76;21061;-60
2022/06/03 04:19:05;;;;;;;17.40;8.15;;;;;;;;;;1890115;76;21029;-60
2022/06/03 04:21:38;;;;;;;18.12;7.87;;;;;;;;;;1891769;76;21054;-60
2022/06/03 04:24:24;;;;;;;18.20;6.10;;;;;;;;;;1890838;75;21057;-60
2022/06/03 04:27:10;;;;;;;13.15;5.58;;;;;;;;;;1891705;76;21026;-60
2022/06/03 04:29:59;;;;;;;13.78;5.90;;;;;;;;;;1891661;76;21053;-60
2022/06/03 04:32:31;;;;;;;21.87;8.20;;;;;;;;;;1891670;75;21127;-59
2022/06/03 04:35:07;;;;;;;14.18;5.90;;;;;;;;;;1856119;76;21116;-60
2022/06/03 04:37:37;;;;;;;12.35;5.53;;;;;;;;;;1891705;76;21057;-60
2022/06/03 04:40:24;;;;;;;13.03;5.28;;;;;;;;;;1891798;75;21057;-60
2022/06/03 04:42:57;;;;;;;10.05;4.70;;;;;;;;;;1891778;76;21561;-60
2022/06/03 04:45:33;;;;;;;15.25;5.45;;;;;;;;;;1891708;75;21115;-60
2022/06/03 04:48:12;;;;;;;7.30;4.80;;;;;;;;;;1892439;74;21033;-61
2022/06/03 04:50:45;;;;;;;12.85;5.33;;;;;;;;;;1893890;76;21088;-61
2022/06/03 04:53:31;;;;;;;10.70;5.60;;;;;;;;;;1890861;75;21491;-61
2022/06/03 04:56:19;;;;;;;9.20;4.55;;;;;;;;;;1893890;76;21109;-61
2022/06/03 04:58:57;;;;;;;9.00;5.00;;;;;;;;;;1893847;74;21523;-60
2022/06/03 05:01:40;;;;;;;9.63;4.97;;;;;;;;;;1894028;76;21025;-61
2022/06/03 05:04:17;;;;;;;16.75;4.92;;;;;;;;;;1894033;75;21111;-60
2022/06/03 05:07:02;;;;;;;11.50;4.80;;;;;;;;;;1890736;75;21097;-60
2022/06/03 05:09:31;;;;;;;18.17;5.30;;;;;;;;;;1894063;75;21316;-61
2022/06/03 05:12:01;;;;;;;10.95;5.22;;;;;;;;;;1890623;75;21045;-61
2022/06/03 05:14:47;;;;;;;9.78;4.60;;;;;;;;;;1893873;75;21440;-61
2022/06/03 05:17:20;;;;;;;32.75;7.30;;;;;;;;;;1893841;76;21115;-61
2022/06/03 05:19:59;;;;;;;18.82;6.37;;;;;;;;;;1893878;75;21031;-61
2022/06/03 05:22:32;;;;;;;17.02;5.50;;;;;;;;;;1893802;75;21053;-61
2022/06/03 05:25:02;;;;;;;12.05;4.90;;;;;;;;;;1892978;75;21030;-61
2022/06/03 05:27:38;;;;;;;20.52;7.60;;;;;;;;;;1893662;75;21076;-61
2022/06/03 05:30:23;;;;;;;13.43;4.55;;;;;;;;;;1893804;75;21056;-61
2022/06/03 05:32:51;;;;;;;;;;;;;;;;;;1895451;75;21014;-62
2022/06/03 05:35:24;;;;;;;16.87;5.17;;;;;;;;;;1893834;75;20394;-61
2022/06/03 05:38:12;;;;;;;12.00;5.22;;;;;;;;;;1893899;75;21053;-61
2022/06/03 05:40:48;;;;;;;12.05;5.12;;;;;;;;;;1890944;75;21120;-61
2022/06/03 05:43:18;;;;;;;26.10;7.60;;;;;;;;;;1893933;75;21111;-61
2022/06/03 05:46:00;;;;;;;54.93;10.13;;;;;;;;;;1893411;75;21029;-61
2022/06/03 05:48:30;;;;;;;35.78;9.50;;;;;;;;;;1893703;74;21120;-61
2022/06/03 05:51:00;;;;;;;25.77;7.30;;;;;;;;;;1893851;75;21053;-61
2022/06/03 05:53:34;;;;;;;22.87;6.00;;;;;;;;;;1893830;75;21025;-61
2022/06/03 05:56:20;;;;;;;17.65;7.37;;;;;;;;;;1893803;75;21096;-61
2022/06/03 05:58:51;;;;;;;11.18;5.05;;;;;;;;;;1893788;76;21057;-61
2022/06/03 06:01:36;;;;;;;14.28;6.15;;;;;;;;;;1893920;75;21026;-62
2022/06/03 06:04:06;;;;;;;13.20;5.00;;;;;;;;;;1892980;75;21119;-61
2022/06/03 06:06:42;;;;;;;19.77;6.00;;;;;;;;;;1893125;75;21029;-61
2022/06/03 06:09:30;;;;;;;13.08;6.15;;;;;;;;;;1891817;74;21112;-61
2022/06/03 06:12:00;;;;;;;17.27;6.00;;;;;;;;;;1893770;75;21029;-61
2022/06/03 06:14:39;;;;;;;11.33;5.47;;;;;;;;;;1894109;76;21029;-61
2022/06/03 06:17:12;;;;;;;9.95;5.58;;;;;;;;;;1893858;75;21053;-61
2022/06/03 06:19:45;;;;;;;12.07;6.25;;;;;;;;;;1892051;75;21138;-60
2022/06/03 06:22:29;;;;;;;26.57;10.95;;;;;;;;;;1891887;75;21057;-60
2022/06/03 06:24:58;;;;;;;27.42;11.05;;;;;;;;;;1894075;76;21472;-61
2022/06/03 06:27:31;;;;;;;28.45;12.95;;;;;;;;;;1893961;75;21026;-61
2022/06/03 06:30:00;;;;;;;29.07;10.78;;;;;;;;;;1893883;76;21029;-61
2022/06/03 06:32:30;;;;;;;29.77;12.28;;;;;;;;;;1893570;75;21033;-60
2022/06/03 06:35:17;;;;;;;36.00;12.50;;;;;;;;;;1894077;75;21025;-61
2022/06/03 06:37:47;;;;;;;29.63;12.30;;;;;;;;;;1894020;75;21120;-61
2022/06/03 06:40:17;;;;;;;23.25;10.88;;;;;;;;;;1893986;75;21589;-61
2022/06/03 06:42:51;;;;;;;17.75;8.18;;;;;;;;;;1893301;75;21041;-63
2022/06/03 06:45:34;;;;;;;22.45;10.85;;;;;;;;;;1891552;75;21209;-63
2022/06/03 06:48:13;;;;;;;12.63;6.87;;;;;;;;;;1893074;74;21054;-63
2022/06/03 06:50:43;;;;;;;17.62;7.97;;;;;;;;;;1893587;75;21041;-63
2022/06/03 06:53:13;;;;;;;14.87;8.08;;;;;;;;;;1892936;75;21061;-62
2022/06/03 06:55:49;;;;;;;14.45;8.15;;;;;;;;;;1874263;76;21036;-63
2022/06/03 06:58:45;;;;;;;21.52;7.25;;;;;;;;;;1861786;76;21127;-63
2022/06/03 07:01:15;;;;;;;13.93;8.80;;;;;;;;;;1862123;77;21088;-63
2022/06/03 07:03:45;;;;;;;17.23;9.45;;;;;;;;;;1862088;77;21091;-63
2022/06/03 07:06:27;;;;;;;26.20;11.15;;;;;;;;;;1861491;76;21108;-63
2022/06/03 07:08:57;;;;;;;18.65;10.05;;;;;;;;;;1888583;75;21092;-63
2022/06/03 07:11:27;;;;;;;20.45;8.70;;;;;;;;;;1893850;76;21061;-63
2022/06/03 07:14:00;;;;;;;17.50;9.38;;;;;;;;;;1893601;75;21096;-63
2022/06/03 07:22:30;;;;;;;18.70;8.10;;;;;;;;;;1893689;75;21100;-63
2022/06/03 07:25:03;;;;;;;21.35;9.15;;;;;;;;;;1893679;75;21111;-62
2022/06/03 07:27:44;;;;;;;19.42;8.35;;;;;;;;;;1893666;75;21029;-63
2022/06/03 07:30:43;;;;;;;16.93;8.85;;;;;;;;;;1915269;74;21053;-63
2022/06/03 07:33:13;;;;;;;18.67;10.13;;;;;;;;;;1892805;75;21123;-63
2022/06/03 07:35:52;;;;;;;25.50;10.65;;;;;;;;;;1893554;76;21135;-63
2022/06/03 07:38:21;;;;;;;18.40;8.78;;;;;;;;;;1893717;76;21099;-63
2022/06/03 07:40:51;;;;;;;17.20;8.28;;;;;;;;;;1893918;75;21022;-63
2022/06/03 07:43:21;;;;;;;26.00;9.98;;;;;;;;;;1893473;74;21140;-62
2022/06/03 07:46:03;;;;;;;14.95;8.03;;;;;;;;;;1892070;75;21017;-63
2022/06/03 07:48:33;;;;;;;15.70;8.18;;;;;;;;;;1893102;75;21037;-63
2022/06/03 07:51:06;;;;;;;19.25;8.03;;;;;;;;;;1861467;76;21134;-64
2022/06/03 07:53:36;;;;;;;28.98;11.03;;;;;;;;;;1861935;76;21206;-63
2022/06/03 07:56:05;;;;;;;23.85;7.40;;;;;;;;;;1861201;76;21597;-63
2022/06/03 07:58:40;;;;;;;26.15;8.33;;;;;;;;;;1862011;76;21048;-63
2022/06/03 08:01:06;;;;;;;28.40;8.53;;;;;;;;;;1860954;76;21139;-63
2022/06/03 08:03:36;;;;;;;19.12;7.47;;;;;;;;;;1861807;76;21507;-63
2022/06/03 08:06:06;;;;;;;27.93;7.85;;;;;;;;;;1877231;76;21481;-64
2022/06/03 08:11:24;;;;;;;26.95;7.75;;;;;;;;;;1893654;76;21119;-63
2022/06/03 08:13:54;;;;;;;24.25;9.48;;;;;;;;;;1893799;75;21065;-63
2022/06/03 08:16:34;;;;;;;21.37;8.08;;;;;;;;;;1893826;75;21033;-63
2022/06/03 08:19:12;;;;;;;18.02;7.20;;;;;;;;;;1888961;75;21017;-64
2022/06/03 08:21:46;;;;;;;21.25;7.60;;;;;;;;;;1889261;75;21158;-63
2022/06/03 08:24:15;;;;;;;12.67;5.80;;;;;;;;;;1887952;76;21083;-66
2022/06/03 08:26:46;;;;;;;12.58;7.10;;;;;;;;;;1891964;75;21053;-63
2022/06/03 08:29:19;;;;;;;19.92;7.80;;;;;;;;;;1893234;74;21053;-67
2022/06/03 08:32:09;;;;;;;22.30;7.83;;;;;;;;;;1928339;74;21083;-59
2022/06/03 08:34:45;;;;;;;13.60;7.33;;;;;;;;;;1928492;73;21039;-66
2022/06/03 08:37:15;;;;;;;22.37;8.20;;;;;;;;;;1926924;74;21110;-63
2022/06/03 08:39:44;;;;;;;27.80;9.23;;;;;;;;;;1928391;73;21064;-63
2022/06/03 08:42:14;;;;;;;20.17;8.40;;;;;;;;;;1928335;74;21121;-63
2022/06/03 08:44:47;;;;;;;18.23;6.95;;;;;;;;;;1928977;73;21552;-65
2022/06/03 08:47:19;;;;;;;24.57;8.78;;;;;;;;;;1928593;72;21115;-63
2022/06/03 08:50:07;;;;;;;26.45;8.55;;;;;;;;;;1928464;74;21023;-65
2022/06/03 08:52:46;;;;;;;17.75;7.47;;;;;;;;;;1927399;74;21171;-64
2022/06/03 08:55:19;;;;;;;32.67;12.07;;;;;;;;;;1927553;73;21086;-61
2022/06/03 08:57:49;;;;;;;17.23;7.00;;;;;;;;;;1926737;74;21098;-62
2022/06/03 09:00:19;;;;;;;18.25;6.30;;;;;;;;;;1928357;74;21039;-63
2022/06/03 09:02:52;;;;;;;18.50;6.15;;;;;;;;;;1928638;74;21007;-62
2022/06/03 09:05:21;;;;;;;16.90;6.10;;;;;;;;;;1928702;73;20992;-64
2022/06/03 09:07:58;;;;;;;13.48;4.97;;;;;;;;;;1928124;72;21043;-63
2022/06/03 09:10:28;;;;;;;15.30;5.67;;;;;;;;;;1928440;73;21066;-60
2022/06/03 09:12:57;;;;;;;14.65;5.37;;;;;;;;;;1928466;74;21062;-60
2022/06/03 09:15:27;;;;;;;17.12;5.08;;;;;;;;;;1928314;72;21060;-62
2022/06/03 09:18:09;;;;;;;12.90;5.35;;;;;;;;;;1928638;74;21059;-62
2022/06/03 09:20:39;;;;;;;13.22;5.78;;;;;;;;;;1928659;73;21015;-64
2022/06/03 09:23:09;;;;;;;15.80;5.33;;;;;;;;;;1928571;74;21070;-65
2022/06/03 09:25:47;;;;;;;20.20;6.83;;;;;;;;;;1928430;74;21426;-62
2022/06/03 09:28:17;;;;;;;18.15;5.90;;;;;;;;;;1928476;74;21124;-64
2022/06/03 09:30:47;;;;;;;16.23;5.72;;;;;;;;;;1928284;74;21054;-62
2022/06/03 09:33:16;;;;;;;14.95;6.80;;;;;;;;;;1928430;74;21112;-63
2022/06/03 09:35:46;;;;;;;16.20;6.15;;;;;;;;;;1928391;74;21012;-63
2022/06/03 09:38:15;;;;;;;13.80;5.25;;;;;;;;;;1928429;74;21133;-59
2022/06/03 09:40:45;;;;;;;26.50;6.40;;;;;;;;;;1928425;74;21077;-61
2022/06/03 09:43:15;;;;;;;14.65;5.05;;;;;;;;;;1928365;74;21058;-59
2022/06/03 09:45:46;;;;;;;15.18;5.78;;;;;;;;;;1928327;74;21066;-61
2022/06/03 09:48:20;;;;;;;13.58;6.22;;;;;;;;;;1928309;74;21083;-58
2022/06/03 09:50:50;;;;;;;8.28;4.75;;;;;;;;;;1928596;74;21454;-60
2022/06/03 09:53:20;;;;;;;12.28;4.80;;;;;;;;;;1928292;74;21089;-59
2022/06/03 09:55:52;;;;;;;11.70;5.25;;;;;;;;;;1928092;73;21235;-60
2022/06/03 09:58:22;;;;;;;11.65;4.30;;;;;;;;;;1928363;73;21090;-62
2022/06/03 10:00:52;;;;;;;11.03;4.53;;;;;;;;;;1928289;74;20987;-61
2022/06/03 10:03:21;;;;;;;18.27;4.60;;;;;;;;;;1928392;74;21058;-61
2022/06/03 10:05:51;;;;;;;18.60;5.20;;;;;;;;;;1928464;74;21059;-60
2022/06/03 10:08:21;;;;;;;17.20;5.55;;;;;;;;;;1928254;74;21557;-66
2022/06/03 10:13:39;;;;;;;13.15;4.53;;;;;;;;;;1928263;74;21180;-60
2022/06/03 10:16:09;;;;;;;13.58;4.78;;;;;;;;;;1928356;74;21020;-61
2022/06/03 10:18:39;;;;;;;11.15;4.00;;;;;;;;;;1928159;74;21141;-62
2022/06/03 10:21:12;;;;;;;13.08;4.55;;;;;;;;;;1928244;74;21043;-58
2022/06/03 10:23:48;;;;;;;18.67;4.40;;;;;;;;;;1927733;74;21039;-62
2022/06/03 10:26:21;;;;;;;14.98;4.45;;;;;;;;;;1927995;74;21160;-63
2022/06/03 10:28:50;;;;;;;20.45;4.58;;;;;;;;;;1928219;74;21016;-61
2022/06/03 10:31:20;;;;;;;13.30;4.05;;;;;;;;;;1927501;74;21044;-60
2022/06/03 10:33:56;;;;;;;13.20;4.83;;;;;;;;;;1925942;74;21020;-62
2022/06/03 10:36:25;;;;;;;8.80;3.95;;;;;;;;;;1925714;74;21031;-62
2022/06/03 10:38:54;;;;;;;8.38;3.87;;;;;;;;;;1925968;73;21047;-62
2022/06/03 10:41:24;;;;;;;7.53;3.05;;;;;;;;;;1925793;74;21125;-66
2022/06/03 10:43:53;;;;;;;7.53;3.42;;;;;;;;;;1926105;74;21107;-62
2022/06/03 10:46:21;;;;;;;9.28;4.15;;;;;;;;;;1925802;74;21019;-64
2022/06/03 10:48:52;;;;;;;13.85;4.42;;;;;;;;;;1925853;74;21089;-64
2022/06/03 15:10:13;;;;;;;21.70;7.37;;;29.20;60.20;;;;;;1959474;73;26156;-59
2022/06/03 15:12:52;;;;;;;39.15;8.95;;;28.80;60.70;;;;;;1918511;75;21059;-59
2022/06/03 15:15:26;;;;;;;24.30;6.75;;;28.80;60.80;;;;;;1918397;75;21017;-59
2022/06/03 15:17:56;;;;;;;24.12;6.70;;;28.80;60.80;;;;;;1918329;75;21465;-59
2022/06/03 15:20:25;;;;;;;19.70;6.25;;;28.70;60.70;;;;;;1918313;74;21014;-59
2022/06/03 15:22:57;;;;;;;12.43;5.53;;;28.80;60.60;;;;;;1918201;74;21084;-59
2022/06/03 15:25:44;;;;;;;9.33;5.17;;;28.80;60.80;;;;;;1918490;75;21426;-59
2022/06/03 15:28:16;;;;;;;18.42;5.70;;;28.80;60.60;;;;;;1918278;74;21442;-59
2022/06/03 15:30:57;;;;;;;21.45;6.28;;;28.90;60.80;;;;;;1918410;74;21015;-60
2022/06/03 15:33:32;;;;;;;15.75;6.03;;;28.90;60.90;;;;;;1918317;75;21100;-59
2022/06/03 15:36:17;;;;;;;16.00;5.67;;;28.90;61.10;;;;;;1917852;73;21082;-60
2022/06/03 15:38:49;;;;;;;16.62;5.65;;;28.90;61.10;;;;;;1918322;75;21034;-59
2022/06/03 15:41:24;;;;;;;23.05;6.30;;;28.90;61.80;;;;;;1918329;75;21023;-60
2022/06/03 15:43:58;;;;;;;12.47;5.70;;;28.80;61.20;;;;;;1918243;74;21082;-60
2022/06/03 15:46:40;;;;;;;20.12;11.12;;;28.80;61.20;;;;;;1918395;75;21089;-60
2022/06/03 15:49:09;;;;;;;17.62;6.60;;;28.70;61.30;;;;;;1916710;74;21027;-60
2022/06/03 15:51:43;;;;;;;13.62;5.90;;;28.70;61.60;;;;;;1917309;74;21043;-59
2022/06/03 15:54:33;;;;;;;16.52;6.95;;;28.70;61.60;;;;;;1918241;75;21144;-59
2022/06/03 15:57:20;;;;;;;16.70;6.95;;;28.60;61.70;;;;;;1918262;74;21062;-59
2022/06/03 15:59:54;;;;;;;20.55;7.35;;;28.60;62.00;;;;;;1906804;74;21027;-59
2022/06/03 16:02:26;;;;;;;19.40;6.08;;;28.50;62.20;;;;;;1918603;74;21107;-59
2022/06/03 16:05:13;;;;;;;16.90;6.75;;;28.50;62.50;;;;;;1918077;75;21014;-59
2022/06/03 16:08:03;;;;;;;16.32;8.13;;;28.40;62.60;;;;;;1918261;73;21026;-59
2022/06/03 16:10:41;;;;;;;15.03;7.17;;;28.40;62.80;;;;;;1924293;74;21037;-59
2022/06/03 16:13:29;;;;;;;16.57;8.00;;;28.40;62.90;;;;;;1923109;74;21088;-59
2022/06/03 16:16:20;;;;;;;24.63;8.25;;;28.30;63.10;;;;;;1925327;74;21050;-59
2022/06/03 16:19:04;;;;;;;23.67;8.08;;;28.20;63.60;;;;;;1915218;75;21054;-59
2022/06/03 16:21:58;;;;;;;16.42;6.95;;;28.10;64.00;;;;;;1921316;74;21046;-59
2022/06/03 16:24:36;;;;;;;26.37;8.27;;;27.90;64.30;;;;;;1924990;74;21010;-59
2022/06/03 16:27:25;;;;;;;23.18;8.28;;;27.90;64.70;;;;;;1924708;74;21714;-59
2022/06/03 16:30:12;;;;;;;24.72;7.08;;;27.80;65.10;;;;;;1924494;74;21034;-58
2022/06/03 16:32:55;;;;;;;19.65;8.33;;;27.80;65.30;;;;;;1924790;74;20995;-59
2022/06/03 16:35:33;;;;;;;40.20;10.03;;;27.80;65.50;;;;;;1844184;74;21076;-59
2022/06/03 16:38:22;;;;;;;23.77;9.60;;;27.80;65.60;;;;;;1924624;74;21068;-59
2022/06/03 16:41:20;;;;;;;17.55;10.93;;;27.70;65.70;;;;;;1924646;74;21096;-59
2022/06/03 16:44:10;;;;;;;23.10;10.25;;;27.70;65.80;;;;;;1924657;74;21035;-59
2022/06/03 16:47:18;;;;;;;20.88;9.43;;;27.70;66.00;;;;;;1899816;74;21112;-59
2022/06/03 16:49:59;;;;;;;27.85;10.80;;;27.70;66.20;;;;;;1867397;76;21106;-59
2022/06/03 16:52:39;;;;;;;23.50;10.60;;;27.70;66.20;;;;;;1867019;76;21050;-59
2022/06/03 16:55:30;;;;;;;22.52;11.75;;;27.70;66.30;;;;;;1905456;74;21050;-59
2022/06/03 16:58:08;;;;;;;33.85;14.63;;;27.70;66.40;;;;;;1924639;74;20990;-59
2022/06/03 17:00:39;;;;;;;25.48;11.05;;;27.60;66.60;;;;;;1924622;74;21035;-59
2022/06/03 17:03:09;;;;;;;28.83;13.60;;;27.60;66.80;;;;;;1922712;74;21019;-60
2022/06/03 17:05:50;;;;;;;24.45;12.82;;;27.60;67.00;;;;;;1924658;74;21117;-59
2022/06/03 17:08:32;;;;;;;18.20;10.50;;;27.60;67.00;;;;;;1924699;74;21014;-59
2022/06/03 17:11:04;;;;;;;27.77;11.28;;;27.60;67.10;;;;;;1906379;74;21105;-59
2022/06/03 17:13:33;;;;;;;26.00;12.10;;;27.50;67.20;;;;;;1905220;74;21161;-60
2022/06/03 17:16:02;;;;;;;28.83;13.18;;;27.50;67.40;;;;;;1905187;75;21023;-59
2022/06/03 17:18:32;;;;;;;39.80;18.60;;;27.40;67.60;;;;;;1905241;75;21019;-59
2022/06/03 17:21:18;;;;;;;38.60;17.07;;;27.40;67.70;;;;;;1905251;75;21073;-59
2022/06/03 17:24:02;;;;;;;53.15;18.07;;;27.40;67.90;;;;;;1863843;74;21040;-59
2022/06/03 17:26:42;;;;;;;49.20;19.98;;;27.30;68.00;;;;;;1905334;74;21473;-59
2022/06/03 17:29:35;;;;;;;30.27;15.63;;;27.30;68.20;;;;;;1905304;74;21031;-59
2022/06/03 17:32:16;;;;;;;41.95;16.52;;;27.30;68.30;;;;;;1905148;75;21148;-59
2022/06/03 17:35:03;;;;;;;27.73;11.55;;;27.20;68.30;;;;;;1858130;77;21030;-59
2022/06/03 17:37:50;;;;;;;23.55;12.05;;;27.20;68.50;;;;;;1905401;74;21073;-59
2022/06/03 17:40:31;;;;;;;23.07;9.30;;;27.10;68.60;;;;;;1905234;74;21035;-59
2022/06/03 17:43:06;;;;;;;24.70;9.63;;;27.00;68.60;;;;;;1904047;74;21016;-59
2022/06/03 17:45:50;;;;;;;16.48;8.60;;;26.90;68.90;;;;;;1888366;75;21019;-59
2022/06/03 17:48:39;;;;;;;16.80;9.83;;;26.80;69.00;;;;;;1898539;75;21024;-59
2022/06/03 17:57:07;;;;;;;17.50;8.03;;;26.70;69.40;;;;;;1905517;75;21044;-59
2022/06/03 17:59:42;;;;;;;18.92;7.83;;;26.70;69.40;;;;;;1904916;74;21082;-59
2022/06/03 18:02:13;;;;;;;19.60;7.78;;;26.70;69.40;;;;;;1904890;74;21466;-59
2022/06/03 18:05:01;;;;;;;13.72;7.35;;;26.70;69.50;;;;;;1904826;74;21093;-59
2022/06/03 18:07:35;;;;;;;22.07;7.50;;;26.60;69.70;;;;;;1905250;75;21077;-59
2022/06/03 18:10:07;;;;;;;11.70;7.05;;;26.60;69.80;;;;;;1911572;74;21109;-59
2022/06/03 18:12:37;;;;;;;14.33;7.15;;;26.50;69.90;;;;;;1924196;74;21039;-59
2022/06/03 18:15:18;;;;;;;17.60;6.92;;;26.50;70.10;;;;;;1924773;74;21026;-59
2022/06/03 18:17:59;;;;;;;22.27;8.55;;;26.40;70.50;;;;;;1900051;74;21104;-59
2022/06/03 18:20:42;;;;;;;16.40;8.08;;;26.40;70.70;;;;;;1924741;74;21434;-59
2022/06/03 18:23:39;;;;;;;19.25;8.13;;;26.40;70.70;;;;;;1924873;74;21128;-59
2022/06/03 18:26:44;;;;;;;25.05;10.03;;;26.30;70.80;;;;;;1924376;74;20999;-59
2022/06/03 18:29:22;;;;;;;18.52;7.25;;;26.20;71.00;;;;;;1924861;74;21420;-59
2022/06/03 18:32:20;;;;;;;19.20;7.35;;;26.20;71.10;;;;;;1924536;74;21027;-59
2022/06/03 18:35:04;;;;;;;19.45;8.33;;;26.20;71.40;;;;;;1874686;74;21132;-59
2022/06/03 18:37:52;;;;;;;16.30;7.40;;;26.10;71.30;;;;;;1899781;74;21038;-59
2022/06/03 18:40:30;;;;;;;14.28;7.55;;;26.10;71.50;;;;;;1924627;74;21014;-59
2022/06/03 18:43:17;;;;;;;17.98;7.45;;;26.00;71.60;;;;;;1924125;74;21038;-59
2022/06/03 18:46:08;;;;;;;21.82;7.60;;;26.00;71.80;;;;;;1924608;74;20987;-59
2022/06/03 18:48:49;;;;;;;15.45;7.97;;;25.90;71.90;;;;;;1924174;74;21080;-59
2022/06/03 18:51:30;;;;;;;20.72;7.78;;;25.90;71.90;;;;;;1924548;74;21477;-59
2022/06/03 18:54:22;;;;;;;12.53;7.80;;;25.80;71.70;;;;;;1924360;74;21054;-59
2022/06/03 18:57:10;;;;;;;29.55;9.60;;;25.80;72.30;;;;;;1924574;74;21469;-59
2022/06/03 18:59:57;;;;;;;16.85;7.90;;;25.80;72.50;;;;;;1924670;74;21038;-59
2022/06/03 19:02:37;;;;;;;13.13;7.75;;;25.80;72.50;;;;;;1924206;74;21051;-59
2022/06/03 19:05:33;;;;;;;19.98;8.05;;;25.80;72.50;;;;;;1924370;74;21046;-59
2022/06/03 19:08:26;;;;;;;16.50;6.80;;;25.80;72.50;;;;;;1924609;74;21023;-59
2022/06/03 19:11:17;;;;;;;10.93;7.05;;;25.80;72.50;;;;;;1915375;74;21104;-59
2022/06/03 19:13:56;;;;;;;14.43;6.83;;;25.80;72.50;;;;;;1905268;74;21047;-59
2022/06/03 19:16:30;;;;;;;22.35;8.10;;;25.70;72.50;;;;;;1905214;75;21073;-59
2022/06/03 19:19:00;;;;;;;;;;;25.70;72.60;;;;;;1907710;74;21105;-59
2022/06/03 19:21:59;;;;;;;15.58;7.42;;;25.70;72.50;;;;;;1902119;74;20101;-59
2022/06/03 19:24:54;;;;;;;12.65;6.75;;;25.70;72.40;;;;;;1904745;74;21087;-59
2022/06/03 19:27:31;;;;;;;22.52;10.55;;;25.70;72.60;;;;;;1905326;74;21019;-59
2022/06/03 19:30:09;;;;;;;22.95;10.15;;;25.60;72.60;;;;;;1905194;75;21032;-59